Weather observations for the past three days for
Atkinson Municipal Airport
Imperial (Metric)
Date Time (cdt) Wind (mph) Vis. (mi.) Weather Sky Cond. Temperature (ºF) Relative Humidity Wind Chill (°F) Heat Index (°F) Pressure Precipitation (in)
Air Dwpt 6 hour altimeter (in) sea level (mb) 1 hr 3 hr 6 hr
Max. Min.
10 09:35 NE 13 G 21 10.00 Fair CLR 62.6 42.8 49% 30.1 0.0
10 09:15 NE 10 G 22 10.00 Fair CLR 60.8 42.8 52% 30.1 0.0
10 08:55 NE 12 G 16 10.00 Fair CLR 60.8 42.8 52% 30.11 0.0
10 08:35 NE 13 G 16 10.00 Fair CLR 60.8 44.6 55% 30.09 0.0
10 08:15 NE 13 G 18 10.00 Fair CLR 60.8 46.4 59% 30.07 0.0
10 07:55 NE 14 G 22 10.00 Fair CLR 60.8 46.4 59% 30.04 0.0
10 07:35 NE 14 G 21 10.00 Fair CLR 60.8 48.2 63% 30.04 0.0
10 07:15 NE 13 G 22 10.00 Fair CLR 60.8 48.2 63% 30.03 0.0
10 06:55 NE 12 10.00 Fair CLR 59 50 64.8 58.8 72% 30.01 0.0
10 06:35 NE 12 G 17 10.00 Fair CLR 59 50 72% 30 0.0
10 06:15 NE 12 G 18 10.00 Fair CLR 60.8 50 68% 29.99 0.0
10 05:55 NE 12 G 20 10.00 Fair CLR 60.8 50 68% 29.99 0.0
10 05:35 NE 9 10.00 Fair CLR 60.8 51.8 72% 29.99 0.0
10 05:15 NE 9 10.00 Fair CLR 60.8 51.8 72% 29.98 0.0
10 04:55 NE 9 10.00 Fair CLR 60.8 51.8 72% 29.96 0.0
10 04:35 NE 9 10.00 Fair CLR 60.8 51.8 72% 29.96 0.0
10 04:15 NE 10 10.00 Light Drizzle CLR 62.6 51.8 68% 29.95 0.0
10 03:55 NE 9 10.00 Fair CLR 62.6 51.8 68% 29.94 0.0
10 03:35 NE 6 10.00 Fair CLR 60.8 53.6 77% 29.93 0.0
10 03:15 NE 3 10.00 Fair CLR 60.8 53.6 77% 29.92 0.0
10 02:55 NE 6 10.00 Fair CLR 60.8 55.4 83% 29.92 0.0
10 02:35 N 1 10.00 Fair CLR 60.8 55.4 83% 29.93 0.0
10 02:15 NE 2 10.00 Fair CLR 62.6 53.6 73% 29.92 0.0
10 01:55 N 3 10.00 Fair CLR 64.4 53.6 68% 29.92 0.0
10 01:35 N 3 10.00 Fair CLR 62.6 55.4 77% 29.92 0.0
10 01:15 E 3 10.00 Fair CLR 62.6 57.2 83% 29.91 0.0
10 00:55 NE 2 10.00 Fair CLR 64.4 53.6 77.5 60.4 68% 29.9 0.0
10 00:35 NE 2 10.00 Fair CLR 64.4 55.4 73% 29.91 0.0
10 00:15 Vrbl 2 10.00 Fair CLR 64.4 55.4 73% 29.91 0.0
09 23:55 E 1 10.00 Mostly Cloudy BKN120 62.6 57.2 83% 29.9 0.0
09 23:35 NW 1 10.00 Mostly Cloudy BKN120 62.6 57.2 83% 29.91 0.0
09 23:15 Calm 10.00 Partly Cloudy SCT100 62.6 57.2 83% 29.9 0.0
09 22:55 NW 1 10.00 Fair CLR 62.6 57.2 83% 29.9 0.0
09 22:35 SW 1 10.00 Fair CLR 64.4 55.4 73% 29.89 0.0
09 22:15 Calm 10.00 Fair CLR 64.4 53.6 68% 29.88 0.0
09 21:55 S 1 1.75 Fair with Haze CLR 66.2 53.6 64% 29.87 0.0
09 21:35 S 3 10.00 Fair CLR 66.2 51.8 60% 29.86 0.0
09 21:15 SW 5 10.00 Fair CLR 68 51.8 56% 29.85 0.0
09 20:55 S 5 10.00 Fair CLR 66.2 51.8 60% 29.83 0.0
09 20:35 S 6 10.00 Fair CLR 68 53.6 60% 29.82 0.0
09 20:15 S 6 10.00 Fair CLR 68 53.6 60% 29.81 0.0
09 19:55 S 7 10.00 Fair CLR 71.6 53.6 53% 29.8 0.0
09 19:35 S 6 10.00 Fair CLR 73.4 57.2 57% 29.8 0.0
09 19:15 S 7 10.00 Fair CLR 75.2 57.2 54% 78 29.8 0.0
09 18:55 S 6 10.00 Fair CLR 77 55.4 83.8 75.9 47% 79 29.8 0.0
09 18:35 S 9 10.00 Fair CLR 78.8 53.6 42% 79 29.8 0.0
09 18:15 S 10 10.00 Fair CLR 78.8 51.8 39% 79 29.8 0.0
09 17:55 S 7 10.00 Fair CLR 80.6 53.6 39% 80 29.8 0.0
09 17:35 S 9 10.00 Fair CLR 80.6 51.8 37% 80 29.8 0.0
09 17:15 S 9 10.00 Fair CLR 82.4 50 32% 81 29.8 0.0
09 16:55 SW 8 10.00 Fair CLR 82.4 50 32% 81 29.8 0.0
09 16:35 Vrbl 5 10.00 Fair CLR 82.4 48.2 30% 81 29.8 0.0
09 16:15 W 8 10.00 Fair CLR 82.4 50 32% 81 29.8 0.0
09 15:55 SW 6 10.00 Fair CLR 82.4 53.6 37% 81 29.81 0.0
09 15:35 Vrbl 7 10.00 Fair CLR 82.4 50 32% 81 29.82 0.0
09 15:15 Vrbl 7 10.00 Fair CLR 82.4 50 32% 81 29.82 0.0
09 14:55 W 8 10.00 Fair CLR 82.4 48.2 30% 81 29.83 0.0
09 14:35 SW 8 10.00 Fair CLR 82.4 48.2 30% 81 29.84 0.0
09 14:15 SW 8 10.00 Fair CLR 82.4 46.4 28% 81 29.84 0.0
09 13:55 W 8 10.00 Fair CLR 82.4 46.4 28% 81 29.84 0.0
09 13:35 W 8 10.00 Fair CLR 80.6 42.8 26% 79 29.84 0.0
09 13:15 Vrbl 6 10.00 Fair CLR 80.6 46.4 30% 80 29.84 0.0
09 12:55 Vrbl 5 10.00 Fair CLR 80.6 50 80.1 51.3 34% 80 29.84 0.0
09 12:35 Vrbl 6 10.00 Fair CLR 78.8 51.8 39% 79 29.85 0.0
09 12:15 W 9 10.00 Fair CLR 78.8 51.8 39% 79 29.86 0.0
09 11:55 Vrbl 5 10.00 Fair CLR 78.8 51.8 39% 79 29.86 0.0
09 11:35 Vrbl 5 10.00 Fair CLR 77 51.8 42% 78 29.86 0.0
09 11:15 W 6 10.00 Fair CLR 75.2 55.4 50% 78 29.86 0.0
09 10:55 Vrbl 6 10.00 Fair CLR 73.4 55.4 53% 29.86 0.0
09 10:35 W 6 10.00 Fair CLR 73.4 57.2 57% 29.86 0.0
09 10:15 SW 6 10.00 Fair CLR 71.6 57.2 61% 29.86 0.0
09 09:55 SW 6 10.00 Fair CLR 69.8 60.8 73% 29.86 0.0
09 09:35 SW 6 10.00 Fair CLR 68 60.8 78% 29.86 0.0
09 09:15 W 3 10.00 Fair CLR 64.4 62.6 94% 29.86 0.0
09 08:55 Vrbl 5 10.00 Fair CLR 60.8 60.8 100% 29.86 0.0
09 08:35 Vrbl 3 9.00 Partly Cloudy SCT001 59 59 100% 29.85 0.0
09 08:15 SW 3 1.25 Light Drizzle Fog/Mist OVC001 57.2 57.2 100% 29.85 0.0
09 07:55 SW 5 0.25 Drizzle Fog OVC001 55.4 55.4 100% 29.85 0.0
09 07:35 S 3 0.15 Fog OVC001 53.6 53.6 100% 29.84 0.0
09 07:15 S 3 0.15 Fog OVC001 51.8 51.8 100% 29.84 0.0
09 06:55 S 5 0.15 Fog OVC001 51.8 51.8 54.3 46.8 100% 29.83 0.0
09 06:35 S 2 0.15 Fog OVC001 50 50 100% 29.83 0.0
09 06:15 S 3 0.15 Fog OVC001 50 50 100% 29.83 0.0
09 05:55 S 2 0.15 Fog VV000 50 50 100% 29.82 0.0
09 05:35 SW 5 0.15 Fog VV000 50 50 100% 49 29.82 0.0
09 05:15 S 1 0.15 Fog VV000 50 50 100% 29.82 0.0
09 04:55 S 3 1.25 Fog/Mist CLR 51.8 51.8 100% 29.82 0.0
09 04:35 SW 6 3.00 Fog/Mist CLR 51.8 51.8 100% 29.83 0.0
09 04:15 S 5 1.25 Fog/Mist CLR 50 50 100% 49 29.83 0.0
09 03:55 W 3 0.15 Fog VV000 50 50 100% 29.83 0.0
09 03:35 S 3 0.25 Fog VV002 50 50 100% 29.82 0.0
09 03:15 Calm 0.15 Fog VV000 50 50 100% 29.82 0.0
09 02:55 S 1 1.25 Fog/Mist CLR 51.8 51.8 100% 29.82 0.0
09 02:35 Vrbl 1 0.75 Fog/Mist VV005 50 50 100% 29.83 0.0
09 02:15 SW 3 5.00 Fog/Mist CLR 51.8 51.8 100% 29.82 0.0
09 01:55 SW 2 0.15 Fog VV000 51.8 51.8 100% 29.83 0.0
09 01:35 Calm 0.25 Fog VV002 50 50 100% 29.83 0.0
09 01:15 SW 3 3.00 Fog/Mist CLR 51.8 51.8 100% 29.83 0.0
09 00:55 S 3 0.15 Fog VV000 53.6 53.6 67.5 51.1 100% 29.84 0.0
09 00:35 S 1 0.15 Fog VV000 51.8 51.8 100% 29.84 0.0
09 00:15 SW 3 1.00 Fog/Mist CLR 53.6 53.6 100% 29.84 0.0
08 23:55 S 6 0.50 Fog VV005 51.8 51.8 100% 29.84 0.0
08 23:35 Calm 4.00 Fog/Mist CLR 53.6 53.6 100% 29.83 0.0
08 23:15 N 1 9.00 Fair CLR 55.4 55.4 100% 29.84 0.0
08 22:55 N 3 10.00 Fair CLR 57.2 57.2 100% 29.84 0.0
08 22:35 N 3 10.00 Fair CLR 57.2 57.2 100% 29.84 0.0
08 22:15 NE 3 10.00 A Few Clouds FEW048 59 59 100% 29.83 0.0
08 21:55 NE 3 10.00 Mostly Cloudy BKN048 59 59 100% 29.81 0.0
08 21:35 N 3 10.00 Mostly Cloudy SCT050 BKN080 60.8 59 94% 29.81 0.0
08 21:15 SE 2 10.00 Mostly Cloudy BKN055 BKN080 59 59 100% 29.79 0.0
08 20:55 Vrbl 2 10.00 A Few Clouds FEW055 59 59 100% 29.79 0.0
08 20:35 Vrbl 3 10.00 Fair CLR 60.8 59 94% 29.77 0.0
08 20:15 Vrbl 3 10.00 Fair CLR 62.6 59 88% 29.76 0.0
08 19:55 Vrbl 5 G 16 10.00 Partly Cloudy SCT085 SCT120 64.4 59 83% 29.76 0.0
08 19:35 Vrbl 5 10.00 Overcast FEW070 BKN085 OVC110 66.2 59 78% 29.76 0.0
08 19:15 SW 7 10.00 Mostly Cloudy BKN110 66.2 59 78% 29.73 0.0
08 18:55 SW 6 10.00 Light Rain BKN110 66.2 59 77.2 66.6 78% 29.72 0.0
08 18:35 SW 6 10.00 A Few Clouds FEW120 68 57.2 69% 29.72 0.0
08 17:55 S 12 G 16 10.00 Fair CLR 69.8 57.2 64% 29.71 0.0
08 17:35 S 12 10.00 Fair CLR 71.6 57.2 61% 29.73 0.0
08 17:15 S 12 10.00 A Few Clouds FEW060 FEW070 FEW120 71.6 55.4 57% 29.74 0.0
08 16:55 SW 9 10.00 Fair CLR 71.6 55.4 57% 29.76 0.0
08 16:35 SW 10 G 18 10.00 A Few Clouds FEW070 71.6 55.4 57% 29.76 0.0
08 16:15 SW 7 10.00 Partly Cloudy SCT070 SCT110 71.6 57.2 61% 29.77 0.0
08 15:55 SW 13 10.00 A Few Clouds FEW095 73.4 55.4 53% 29.77 0.0
08 15:35 SW 10 G 17 10.00 Partly Cloudy SCT095 73.4 57.2 57% 29.77 0.0
08 15:15 SW 10 10.00 A Few Clouds FEW095 75.2 55.4 50% 78 29.77 0.0
08 14:35 SW 13 G 23 10.00 Fair CLR 75.2 55.4 50% 78 29.78 0.0
08 14:15 S 16 G 23 10.00 Fair CLR 73.4 55.4 53% 29.79 0.0
08 13:55 SW 15 G 20 10.00 Fair CLR 75.2 57.2 54% 78 29.79 0.0
08 13:35 SW 9 G 20 10.00 Fair CLR 75.2 57.2 54% 78 29.8 0.0
08 13:15 SW 14 G 21 10.00 Fair CLR 71.6 55.4 57% 29.81 0.0
08 12:35 SW 13 G 20 10.00 Fair CLR 71.6 57.2 61% 29.83 0.0
08 12:15 SW 12 10.00 Fair CLR 71.6 57.2 61% 29.84 0.0
08 11:55 SW 15 G 24 10.00 Fair CLR 69.8 55.4 60% 29.85 0.0
08 11:35 SW 15 G 21 10.00 Fair CLR 69.8 57.2 64% 29.85 0.0
08 11:15 SW 18 G 25 10.00 Fair CLR 69.8 55.4 60% 29.86 0.0
08 10:55 SW 14 G 26 10.00 Fair CLR 68 55.4 64% 29.87 0.0
08 10:35 SW 17 G 23 10.00 Fair CLR 68 55.4 64% 29.87 0.0
08 10:15 SW 13 G 22 10.00 Fair CLR 66.2 55.4 68% 29.87 0.0
08 09:55 SW 14 G 22 10.00 Fair CLR 64.4 53.6 68% 29.88 0.0
08 09:35 SW 15 G 21 10.00 Fair CLR 64.4 53.6 68% 29.89 0.0
08 09:15 SW 10 G 18 10.00 Fair CLR 60.8 51.8 72% 29.9 0.0
08 08:35 SW 13 10.00 Fair CLR 59 50 72% 29.9 0.0
08 08:15 SW 12 G 21 10.00 Fair CLR 59 50 72% 29.9 0.0
08 07:55 SW 13 10.00 Fair CLR 57.2 50 77% 29.9 0.0
08 07:35 SW 10 10.00 Fair CLR 55.4 48.2 77% 29.9 0.0
08 07:15 S 13 G 17 10.00 Fair CLR 55.4 48.2 77% 29.9 0.0
08 06:55 SW 7 10.00 Fair CLR 53.6 46.4 55.4 50 77% 29.9 0.0
08 06:35 SW 7 10.00 Fair CLR 50 46.4 88% 48 29.89 0.0
08 06:15 SW 6 10.00 Fair CLR 50 46.4 88% 48 29.88 0.0
08 05:55 S 7 10.00 Fair CLR 51.8 46.4 82% 29.87 0.0
08 05:35 S 8 10.00 Fair CLR 51.8 46.4 82% 29.87 0.0
08 05:15 S 8 10.00 Fair CLR 51.8 46.4 82% 29.87 0.0
08 04:55 S 8 10.00 Fair CLR 51.8 46.4 82% 29.87 0.0
08 04:35 S 8 10.00 Fair CLR 51.8 46.4 82% 29.87 0.0
08 04:15 S 8 10.00 Fair CLR 51.8 46.4 82% 29.87 0.0
08 03:55 S 7 10.00 Fair CLR 51.8 46.4 82% 29.87 0.0
08 03:35 S 7 10.00 Fair CLR 51.8 46.4 82% 29.88 0.0
08 03:15 S 7 10.00 Fair CLR 51.8 46.4 82% 29.88 0.0
08 02:55 S 7 10.00 Fair CLR 51.8 46.4 82% 29.89 0.0
08 02:35 S 7 10.00 Fair CLR 51.8 46.4 82% 29.9 0.0
08 02:15 S 9 10.00 A Few Clouds FEW060 53.6 46.4 77% 29.9 0.0
08 01:55 S 9 10.00 Partly Cloudy SCT060 55.4 46.4 72% 29.9 0.0
08 01:35 S 10 10.00 Partly Cloudy SCT060 55.4 46.4 72% 29.9 0.0
08 01:15 S 8 10.00 Partly Cloudy SCT060 53.6 46.4 77% 29.9 0.0
08 00:55 S 9 10.00 Mostly Cloudy BKN060 55.4 46.4 66.4 55 72% 29.91 0.0
08 00:35 S 9 10.00 Partly Cloudy SCT050 55.4 46.4 72% 29.91 0.0
08 00:15 S 10 10.00 Partly Cloudy SCT050 55.4 46.4 72% 29.91 0.0
07 23:55 S 9 10.00 A Few Clouds FEW050 57.2 46.4 67% 29.91 0.0
07 23:35 S 9 10.00 Partly Cloudy SCT050 57.2 46.4 67% 29.92 0.0
07 23:15 S 8 10.00 Mostly Cloudy BKN055 57.2 46.4 67% 29.92 0.0
07 22:55 S 9 10.00 Partly Cloudy SCT055 57.2 46.4 67% 29.93 0.0
07 22:35 S 9 10.00 Fair CLR 57.2 46.4 67% 29.93 0.0
07 22:15 S 9 10.00 Fair CLR 57.2 44.6 63% 29.93 0.0
07 21:55 S 9 10.00 Fair CLR 57.2 46.4 67% 29.93 0.0
07 21:35 S 8 10.00 Fair CLR 55.4 46.4 72% 29.92 0.0
07 21:15 S 7 10.00 Fair CLR 55.4 46.4 72% 29.92 0.0
07 20:55 S 7 10.00 Fair CLR 57.2 46.4 67% 29.92 0.0
07 20:35 S 7 10.00 Fair CLR 57.2 46.4 67% 29.91 0.0
07 20:15 S 8 10.00 Fair CLR 59 46.4 63% 29.91 0.0
07 19:55 S 6 10.00 Fair CLR 60.8 48.2 63% 29.91 0.0
07 19:35 S 9 10.00 Fair CLR 64.4 46.4 52% 29.91 0.0
07 19:15 S 7 10.00 Fair CLR 64.4 46.4 52% 29.9 0.0
07 18:55 S 10 G 16 10.00 Fair CLR 66.2 44.6 69.1 62.4 46% 29.9 0.0
07 18:35 SW 10 10.00 Fair CLR 68 44.6 43% 29.91 0.0
07 18:15 SW 9 10.00 Fair CLR 68 44.6 43% 29.91 0.0
07 17:55 SW 9 10.00 Fair CLR 68 44.6 43% 29.92 0.0
07 17:35 SW 13 10.00 Fair CLR 68 44.6 43% 29.92 0.0
07 17:15 SW 10 G 18 10.00 Fair CLR 68 44.6 43% 29.93 0.0
07 16:55 SW 13 G 17 10.00 Fair CLR 68 44.6 43% 29.93 0.0
07 16:35 W 8 10.00 Fair CLR 68 44.6 43% 29.94 0.0
07 16:15 S 10 G 21 10.00 Fair CLR 68 46.4 46% 29.94 0.0
07 15:55 SW 13 G 21 10.00 Fair CLR 68 44.6 43% 29.95 0.0
07 15:35 SW 15 G 20 10.00 Fair CLR 68 44.6 43% 29.96 0.0
07 15:15 W 10 G 18 10.00 A Few Clouds FEW055 66.2 42.8 43% 29.97 0.0
07 14:55 SW 8 G 16 10.00 Partly Cloudy SCT055 66.2 46.4 49% 29.99 0.0
07 14:35 SW 12 G 17 10.00 Partly Cloudy SCT055 66.2 44.6 46% 30 0.0
07 14:15 SW 9 G 21 10.00 A Few Clouds FEW055 66.2 44.6 46% 30 0.0
07 13:55 SW 10 G 21 10.00 A Few Clouds FEW055 66.2 44.6 46% 30.01 0.0
07 13:35 W 8 G 16 10.00 Partly Cloudy SCT055 64.4 44.6 49% 30.01 0.0
07 13:15 SW 8 G 21 10.00 Partly Cloudy SCT055 64.4 44.6 49% 30.02 0.0
07 12:55 SW 10 10.00 A Few Clouds FEW055 64.4 42.8 64.8 41.2 46% 30.02 0.0
07 12:35 W 12 10.00 A Few Clouds FEW055 62.6 42.8 49% 30.03 0.0
07 12:15 SW 12 10.00 Fair CLR 64.4 44.6 49% 30.05 0.0
07 11:55 SW 12 G 17 10.00 A Few Clouds FEW050 64.4 44.6 49% 30.05 0.0
07 11:35 SW 12 G 16 10.00 Fair CLR 62.6 42.8 49% 30.06 0.0
07 11:15 SW 13 G 18 10.00 Fair CLR 62.6 41 45% 30.07 0.0
07 10:55 SW 10 10.00 Fair CLR 60.8 41 48% 30.07 0.0
07 10:35 SW 9 10.00 Fair CLR 60.8 39.2 45% 30.07 0.0
07 10:15 S 10 10.00 Fair CLR 60.8 41 48% 30.07 0.0
07 09:55 SW 10 10.00 Fair CLR 59 41 51% 30.08 0.0
Date Time (cdt) Wind (mph) Vis. (mi.) Weather Sky Cond. Air Dwpt Max. Min. Relative Humidity Wind Chill (°F) Heat Index (°F) altimeter (in) sea level (mb) 1 hr 3 hr 6 hr
6 hour
Temperature (ºF) Pressure Precipitation (in)